sensor_id;sensor_type;location;lat;lon;timestamp;P1;P2;P0
30713;PMS7003;17465;47.934;33.430;2024-03-02T00:01:52;86.75;69.00;44.25
30713;PMS7003;17465;47.934;33.430;2024-03-02T00:04:23;87.50;68.75;42.75
30713;PMS7003;17465;47.934;33.430;2024-03-02T00:06:53;87.00;68.00;44.75
30713;PMS7003;17465;47.934;33.430;2024-03-02T00:09:24;89.50;69.00;43.00
30713;PMS7003;17465;47.934;33.430;2024-03-02T00:11:55;89.50;71.00;44.00
30713;PMS7003;17465;47.934;33.430;2024-03-02T00:14:25;86.25;69.25;42.75
30713;PMS7003;17465;47.934;33.430;2024-03-02T00:16:57;87.00;67.50;43.00
30713;PMS7003;17465;47.934;33.430;2024-03-02T00:19:28;88.00;70.50;45.75
30713;PMS7003;17465;47.934;33.430;2024-03-02T00:22:00;95.00;78.00;45.75
30713;PMS7003;17465;47.934;33.430;2024-03-02T00:24:31;93.75;78.00;49.00
30713;PMS7003;17465;47.934;33.430;2024-03-02T00:27:03;90.25;72.75;44.75
30713;PMS7003;17465;47.934;33.430;2024-03-02T00:29:35;80.25;64.50;43.25
30713;PMS7003;17465;47.934;33.430;2024-03-02T00:32:10;94.25;79.00;49.75
30713;PMS7003;17465;47.934;33.430;2024-03-02T00:34:39;103.25;91.00;55.50
30713;PMS7003;17465;47.934;33.430;2024-03-02T00:37:09;101.25;84.50;49.25
30713;PMS7003;17465;47.934;33.430;2024-03-02T00:39:40;105.25;93.00;56.75
30713;PMS7003;17465;47.934;33.430;2024-03-02T00:42:11;110.00;98.75;56.25
30713;PMS7003;17465;47.934;33.430;2024-03-02T00:44:41;110.75;102.50;58.75
30713;PMS7003;17465;47.934;33.430;2024-03-02T00:47:12;107.75;97.50;58.75
30713;PMS7003;17465;47.934;33.430;2024-03-02T00:49:42;110.75;102.25;56.25
30713;PMS7003;17465;47.934;33.430;2024-03-02T00:52:12;103.00;93.50;52.25
30713;PMS7003;17465;47.934;33.430;2024-03-02T00:54:42;101.50;94.75;57.25
30713;PMS7003;17465;47.934;33.430;2024-03-02T00:57:13;108.00;101.50;53.25
30713;PMS7003;17465;47.934;33.430;2024-03-02T00:59:44;113.25;103.00;59.50
30713;PMS7003;17465;47.934;33.430;2024-03-02T01:02:14;110.00;101.50;59.25
30713;PMS7003;17465;47.934;33.430;2024-03-02T01:04:45;103.50;89.25;51.25
30713;PMS7003;17465;47.934;33.430;2024-03-02T01:07:15;110.75;99.25;59.50
30713;PMS7003;17465;47.934;33.430;2024-03-02T01:09:45;107.75;95.50;52.00
30713;PMS7003;17465;47.934;33.430;2024-03-02T01:12:16;113.25;103.25;60.00
30713;PMS7003;17465;47.934;33.430;2024-03-02T01:14:46;105.00;99.50;58.50
30713;PMS7003;17465;47.934;33.430;2024-03-02T01:17:16;104.00;97.75;58.25
30713;PMS7003;17465;47.934;33.430;2024-03-02T01:19:46;104.00;100.75;58.50
30713;PMS7003;17465;47.934;33.430;2024-03-02T01:22:17;113.50;102.00;60.00
30713;PMS7003;17465;47.934;33.430;2024-03-02T01:24:47;119.00;108.00;62.25
30713;PMS7003;17465;47.934;33.430;2024-03-02T01:27:17;114.50;103.50;61.50
30713;PMS7003;17465;47.934;33.430;2024-03-02T01:29:47;108.75;102.50;59.50
30713;PMS7003;17465;47.934;33.430;2024-03-02T01:32:17;105.50;98.25;58.00
30713;PMS7003;17465;47.934;33.430;2024-03-02T01:34:48;117.00;101.00;60.75
30713;PMS7003;17465;47.934;33.430;2024-03-02T01:37:18;108.75;99.75;54.50
30713;PMS7003;17465;47.934;33.430;2024-03-02T01:39:48;98.00;87.75;51.75
30713;PMS7003;17465;47.934;33.430;2024-03-02T01:42:18;102.50;89.50;51.25
30713;PMS7003;17465;47.934;33.430;2024-03-02T01:44:49;98.75;80.00;47.50
30713;PMS7003;17465;47.934;33.430;2024-03-02T01:47:20;93.00;72.50;42.25
30713;PMS7003;17465;47.934;33.430;2024-03-02T01:49:50;95.50;79.75;49.25
30713;PMS7003;17465;47.934;33.430;2024-03-02T01:52:20;83.75;66.25;44.25
30713;PMS7003;17465;47.934;33.430;2024-03-02T01:54:51;95.75;77.00;45.50
30713;PMS7003;17465;47.934;33.430;2024-03-02T01:57:21;96.75;82.50;46.75
30713;PMS7003;17465;47.934;33.430;2024-03-02T01:59:51;99.00;80.75;49.00
30713;PMS7003;17465;47.934;33.430;2024-03-02T02:02:22;80.75;64.25;36.75
30713;PMS7003;17465;47.934;33.430;2024-03-02T02:04:52;91.50;71.25;45.00
30713;PMS7003;17465;47.934;33.430;2024-03-02T02:07:22;94.00;75.00;43.25
30713;PMS7003;17465;47.934;33.430;2024-03-02T02:09:52;101.25;90.50;51.50
30713;PMS7003;17465;47.934;33.430;2024-03-02T02:12:23;100.25;86.50;47.75
30713;PMS7003;17465;47.934;33.430;2024-03-02T02:14:53;103.00;86.50;52.00
30713;PMS7003;17465;47.934;33.430;2024-03-02T02:17:24;104.50;93.25;47.50
30713;PMS7003;17465;47.934;33.430;2024-03-02T02:19:54;111.25;96.25;58.25
30713;PMS7003;17465;47.934;33.430;2024-03-02T02:22:24;112.75;105.50;59.25
30713;PMS7003;17465;47.934;33.430;2024-03-02T02:24:54;120.25;105.00;62.50
30713;PMS7003;17465;47.934;33.430;2024-03-02T02:27:25;114.75;104.50;59.50
30713;PMS7003;17465;47.934;33.430;2024-03-02T02:29:55;121.00;104.75;58.75
30713;PMS7003;17465;47.934;33.430;2024-03-02T02:32:25;109.00;102.50;58.00
30713;PMS7003;17465;47.934;33.430;2024-03-02T02:34:55;114.00;101.50;60.00
30713;PMS7003;17465;47.934;33.430;2024-03-02T02:37:25;111.25;106.25;62.75
30713;PMS7003;17465;47.934;33.430;2024-03-02T02:39:56;122.00;105.25;59.25
30713;PMS7003;17465;47.934;33.430;2024-03-02T02:42:26;109.25;99.25;57.25
30713;PMS7003;17465;47.934;33.430;2024-03-02T02:44:56;103.25;92.25;56.75
30713;PMS7003;17465;47.934;33.430;2024-03-02T02:47:26;101.00;94.00;58.25
30713;PMS7003;17465;47.934;33.430;2024-03-02T02:49:57;104.75;95.75;56.00
30713;PMS7003;17465;47.934;33.430;2024-03-02T02:52:30;106.75;98.25;58.75
30713;PMS7003;17465;47.934;33.430;2024-03-02T02:55:06;102.50;88.00;51.50
30713;PMS7003;17465;47.934;33.430;2024-03-02T02:57:38;105.75;96.75;57.25
30713;PMS7003;17465;47.934;33.430;2024-03-02T03:00:13;108.50;94.00;56.25
30713;PMS7003;17465;47.934;33.430;2024-03-02T03:02:46;107.75;97.25;56.00
30713;PMS7003;17465;47.934;33.430;2024-03-02T03:05:18;105.00;93.75;55.50
30713;PMS7003;17465;47.934;33.430;2024-03-02T03:07:49;100.25;86.00;51.75
30713;PMS7003;17465;47.934;33.430;2024-03-02T03:10:19;100.50;89.25;47.50
30713;PMS7003;17465;47.934;33.430;2024-03-02T03:12:50;102.75;93.25;51.75
30713;PMS7003;17465;47.934;33.430;2024-03-02T03:15:20;94.25;79.00;46.75
30713;PMS7003;17465;47.934;33.430;2024-03-02T03:17:50;98.25;84.50;50.00
30713;PMS7003;17465;47.934;33.430;2024-03-02T03:20:20;92.25;76.75;46.00
30713;PMS7003;17465;47.934;33.430;2024-03-02T03:22:50;100.75;90.75;52.75
30713;PMS7003;17465;47.934;33.430;2024-03-02T03:25:21;96.00;77.00;48.00
30713;PMS7003;17465;47.934;33.430;2024-03-02T03:27:51;94.00;74.50;46.75
30713;PMS7003;17465;47.934;33.430;2024-03-02T03:30:21;94.75;71.75;44.25
30713;PMS7003;17465;47.934;33.430;2024-03-02T03:32:52;94.50;77.25;45.00
30713;PMS7003;17465;47.934;33.430;2024-03-02T03:35:22;94.00;77.00;46.25
30713;PMS7003;17465;47.934;33.430;2024-03-02T03:37:52;100.00;86.00;48.75
30713;PMS7003;17465;47.934;33.430;2024-03-02T03:40:22;94.25;71.25;40.75
30713;PMS7003;17465;47.934;33.430;2024-03-02T03:42:52;91.25;74.00;43.25
30713;PMS7003;17465;47.934;33.430;2024-03-02T03:45:23;83.25;67.00;42.00
30713;PMS7003;17465;47.934;33.430;2024-03-02T03:47:53;84.00;67.50;43.25
30713;PMS7003;17465;47.934;33.430;2024-03-02T03:50:24;87.50;69.00;45.00
30713;PMS7003;17465;47.934;33.430;2024-03-02T03:52:54;79.00;62.00;44.00
30713;PMS7003;17465;47.934;33.430;2024-03-02T03:55:24;90.00;70.00;43.25
30713;PMS7003;17465;47.934;33.430;2024-03-02T03:57:54;85.75;68.00;43.00
30713;PMS7003;17465;47.934;33.430;2024-03-02T04:00:25;88.25;70.50;46.25
30713;PMS7003;17465;47.934;33.430;2024-03-02T04:02:55;82.00;66.25;41.75
30713;PMS7003;17465;47.934;33.430;2024-03-02T04:05:25;83.00;64.50;41.25
30713;PMS7003;17465;47.934;33.430;2024-03-02T04:07:56;78.00;62.25;38.00
30713;PMS7003;17465;47.934;33.430;2024-03-02T04:10:26;82.00;63.50;41.00
30713;PMS7003;17465;47.934;33.430;2024-03-02T04:12:56;77.50;64.00;40.50
30713;PMS7003;17465;47.934;33.430;2024-03-02T04:15:26;66.25;56.75;35.00
30713;PMS7003;17465;47.934;33.430;2024-03-02T04:17:57;73.50;57.75;33.00
30713;PMS7003;17465;47.934;33.430;2024-03-02T04:20:27;77.50;62.25;41.25
30713;PMS7003;17465;47.934;33.430;2024-03-02T04:22:58;81.25;63.50;37.75
30713;PMS7003;17465;47.934;33.430;2024-03-02T04:25:28;75.75;59.00;37.00
30713;PMS7003;17465;47.934;33.430;2024-03-02T04:27:58;73.50;60.50;37.75
30713;PMS7003;17465;47.934;33.430;2024-03-02T04:30:29;74.75;59.25;37.25
30713;PMS7003;17465;47.934;33.430;2024-03-02T04:32:59;69.00;54.75;35.00
30713;PMS7003;17465;47.934;33.430;2024-03-02T04:35:30;72.75;59.75;41.25
30713;PMS7003;17465;47.934;33.430;2024-03-02T04:38:00;78.75;62.50;39.00
30713;PMS7003;17465;47.934;33.430;2024-03-02T04:40:30;75.00;61.75;38.00
30713;PMS7003;17465;47.934;33.430;2024-03-02T04:43:00;76.75;61.75;37.00
30713;PMS7003;17465;47.934;33.430;2024-03-02T04:45:31;80.50;62.00;37.50
30713;PMS7003;17465;47.934;33.430;2024-03-02T04:48:01;89.50;71.25;44.25
30713;PMS7003;17465;47.934;33.430;2024-03-02T04:50:32;88.75;68.25;43.75
30713;PMS7003;17465;47.934;33.430;2024-03-02T04:53:02;84.25;66.00;41.25
30713;PMS7003;17465;47.934;33.430;2024-03-02T04:55:33;93.50;72.50;45.25
30713;PMS7003;17465;47.934;33.430;2024-03-02T04:58:03;94.00;76.00;47.25
30713;PMS7003;17465;47.934;33.430;2024-03-02T05:00:34;99.75;81.75;50.00
30713;PMS7003;17465;47.934;33.430;2024-03-02T05:03:05;91.50;75.25;47.75
30713;PMS7003;17465;47.934;33.430;2024-03-02T05:05:35;101.75;89.75;55.25
30713;PMS7003;17465;47.934;33.430;2024-03-02T05:08:05;95.50;74.25;48.25
30713;PMS7003;17465;47.934;33.430;2024-03-02T05:10:35;99.25;83.25;50.25
30713;PMS7003;17465;47.934;33.430;2024-03-02T05:13:06;97.75;81.00;45.50
30713;PMS7003;17465;47.934;33.430;2024-03-02T05:15:36;91.75;71.25;44.00
30713;PMS7003;17465;47.934;33.430;2024-03-02T05:18:07;93.25;73.75;45.75
30713;PMS7003;17465;47.934;33.430;2024-03-02T05:20:37;91.00;70.00;45.00
30713;PMS7003;17465;47.934;33.430;2024-03-02T05:23:07;88.25;65.25;38.50
30713;PMS7003;17465;47.934;33.430;2024-03-02T05:25:37;90.25;70.25;46.00
30713;PMS7003;17465;47.934;33.430;2024-03-02T05:28:08;89.00;68.75;45.25
30713;PMS7003;17465;47.934;33.430;2024-03-02T05:30:38;90.25;74.25;47.00
30713;PMS7003;17465;47.934;33.430;2024-03-02T05:33:08;93.50;74.25;46.00
30713;PMS7003;17465;47.934;33.430;2024-03-02T05:35:40;93.00;70.50;44.50
30713;PMS7003;17465;47.934;33.430;2024-03-02T05:38:10;93.00;74.00;46.25
30713;PMS7003;17465;47.934;33.430;2024-03-02T05:40:40;90.50;71.00;45.25
30713;PMS7003;17465;47.934;33.430;2024-03-02T05:43:11;93.25;77.75;47.25
30713;PMS7003;17465;47.934;33.430;2024-03-02T05:45:41;82.75;65.75;42.00
30713;PMS7003;17465;47.934;33.430;2024-03-02T05:48:11;86.00;67.25;42.75
30713;PMS7003;17465;47.934;33.430;2024-03-02T05:50:41;92.50;72.75;46.75
30713;PMS7003;17465;47.934;33.430;2024-03-02T05:53:11;90.00;73.00;45.50
30713;PMS7003;17465;47.934;33.430;2024-03-02T05:55:41;73.00;58.00;31.25
30713;PMS7003;17465;47.934;33.430;2024-03-02T05:58:12;79.00;61.00;36.25
30713;PMS7003;17465;47.934;33.430;2024-03-02T06:00:42;86.00;67.50;45.50
30713;PMS7003;17465;47.934;33.430;2024-03-02T06:03:12;84.00;67.75;44.00
30713;PMS7003;17465;47.934;33.430;2024-03-02T06:05:42;89.50;72.50;46.25
30713;PMS7003;17465;47.934;33.430;2024-03-02T06:08:12;88.00;68.75;44.25
30713;PMS7003;17465;47.934;33.430;2024-03-02T06:10:43;79.50;63.00;42.00
30713;PMS7003;17465;47.934;33.430;2024-03-02T06:13:13;84.00;66.50;43.25
30713;PMS7003;17465;47.934;33.430;2024-03-02T06:15:44;82.00;66.00;41.00
30713;PMS7003;17465;47.934;33.430;2024-03-02T06:18:14;82.50;65.00;42.50
30713;PMS7003;17465;47.934;33.430;2024-03-02T06:20:44;93.25;76.00;45.25
30713;PMS7003;17465;47.934;33.430;2024-03-02T06:23:16;86.25;67.75;43.25
30713;PMS7003;17465;47.934;33.430;2024-03-02T06:25:46;79.25;63.25;35.75
30713;PMS7003;17465;47.934;33.430;2024-03-02T06:28:17;95.25;76.25;43.00
30713;PMS7003;17465;47.934;33.430;2024-03-02T06:30:47;86.25;68.50;43.50
30713;PMS7003;17465;47.934;33.430;2024-03-02T06:33:17;87.25;67.00;42.75
30713;PMS7003;17465;47.934;33.430;2024-03-02T06:35:48;88.25;69.25;42.75
30713;PMS7003;17465;47.934;33.430;2024-03-02T06:38:18;85.75;67.50;44.25
30713;PMS7003;17465;47.934;33.430;2024-03-02T06:40:48;89.25;69.00;44.00
30713;PMS7003;17465;47.934;33.430;2024-03-02T06:43:19;88.50;68.50;44.75
30713;PMS7003;17465;47.934;33.430;2024-03-02T06:45:51;83.75;66.75;43.25
30713;PMS7003;17465;47.934;33.430;2024-03-02T06:48:22;85.75;67.75;42.25
30713;PMS7003;17465;47.934;33.430;2024-03-02T06:50:52;87.75;70.25;45.75
30713;PMS7003;17465;47.934;33.430;2024-03-02T06:53:22;83.00;64.50;42.75
30713;PMS7003;17465;47.934;33.430;2024-03-02T06:55:52;94.75;76.75;52.00
30713;PMS7003;17465;47.934;33.430;2024-03-02T06:58:22;81.75;65.00;40.75
30713;PMS7003;17465;47.934;33.430;2024-03-02T07:00:53;83.00;65.75;42.25
30713;PMS7003;17465;47.934;33.430;2024-03-02T07:03:23;107.00;99.00;58.25
30713;PMS7003;17465;47.934;33.430;2024-03-02T07:05:53;72.25;57.25;36.00
30713;PMS7003;17465;47.934;33.430;2024-03-02T07:08:24;71.75;57.50;35.50
30713;PMS7003;17465;47.934;33.430;2024-03-02T07:10:54;76.75;61.25;40.00
30713;PMS7003;17465;47.934;33.430;2024-03-02T07:13:24;75.25;58.50;39.25
30713;PMS7003;17465;47.934;33.430;2024-03-02T07:15:54;75.75;60.25;38.25
30713;PMS7003;17465;47.934;33.430;2024-03-02T07:18:24;76.75;59.50;37.75
30713;PMS7003;17465;47.934;33.430;2024-03-02T07:20:55;74.50;58.00;36.00
30713;PMS7003;17465;47.934;33.430;2024-03-02T07:23:26;67.50;55.25;34.25
30713;PMS7003;17465;47.934;33.430;2024-03-02T07:25:57;76.75;61.00;36.50
30713;PMS7003;17465;47.934;33.430;2024-03-02T07:28:28;76.75;61.50;37.75
30713;PMS7003;17465;47.934;33.430;2024-03-02T07:31:00;76.50;60.75;39.25
30713;PMS7003;17465;47.934;33.430;2024-03-02T07:33:31;72.00;58.75;37.50
30713;PMS7003;17465;47.934;33.430;2024-03-02T07:36:02;70.50;56.00;34.75
30713;PMS7003;17465;47.934;33.430;2024-03-02T07:38:33;67.75;54.75;34.00
30713;PMS7003;17465;47.934;33.430;2024-03-02T07:41:03;64.75;50.00;33.50
30713;PMS7003;17465;47.934;33.430;2024-03-02T07:43:34;66.00;54.25;34.00
30713;PMS7003;17465;47.934;33.430;2024-03-02T07:46:04;65.50;52.75;34.25
30713;PMS7003;17465;47.934;33.430;2024-03-02T07:48:35;68.00;55.00;36.00
30713;PMS7003;17465;47.934;33.430;2024-03-02T07:51:05;71.00;55.00;34.75
30713;PMS7003;17465;47.934;33.430;2024-03-02T07:53:36;84.60;72.80;53.00
30713;PMS7003;17465;47.934;33.430;2024-03-02T07:56:06;201.33;190.50;174.17
30713;PMS7003;17465;47.934;33.430;2024-03-02T07:58:36;178.17;173.00;158.83
30713;PMS7003;17465;47.934;33.430;2024-03-02T08:01:07;202.33;199.67;186.17
30713;PMS7003;17465;47.934;33.430;2024-03-02T08:03:37;140.33;136.17;122.33
30713;PMS7003;17465;47.934;33.430;2024-03-02T08:06:08;140.40;135.60;118.80
30713;PMS7003;17465;47.934;33.430;2024-03-02T08:08:38;202.67;199.50;185.67
30713;PMS7003;17465;47.934;33.430;2024-03-02T08:11:09;302.60;301.60;289.80
30713;PMS7003;17465;47.934;33.430;2024-03-02T08:13:39;150.50;149.25;142.75
30713;PMS7003;17465;47.934;33.430;2024-03-02T08:16:09;94.25;87.00;73.25
30713;PMS7003;17465;47.934;33.430;2024-03-02T08:18:40;35.75;29.50;12.25
30713;PMS7003;17465;47.934;33.430;2024-03-02T08:21:10;50.75;40.50;19.75
30713;PMS7003;17465;47.934;33.430;2024-03-02T08:23:42;51.00;40.00;18.50
30713;PMS7003;17465;47.934;33.430;2024-03-02T08:26:17;41.00;35.40;13.40
30713;PMS7003;17465;47.934;33.430;2024-03-02T08:28:48;22.00;16.75;0.75
30713;PMS7003;17465;47.934;33.430;2024-03-02T08:31:18;45.75;38.75;17.50
30713;PMS7003;17465;47.934;33.430;2024-03-02T08:33:49;41.75;36.25;18.25
30713;PMS7003;17465;47.934;33.430;2024-03-02T08:36:19;52.25;42.00;29.00
30713;PMS7003;17465;47.934;33.430;2024-03-02T08:38:50;44.50;40.25;27.75
30713;PMS7003;17465;47.934;33.430;2024-03-02T08:41:20;41.75;38.25;26.00
30713;PMS7003;17465;47.934;33.430;2024-03-02T08:43:51;41.00;36.75;21.50
30713;PMS7003;17465;47.934;33.430;2024-03-02T08:46:21;38.00;32.25;20.50
30713;PMS7003;17465;47.934;33.430;2024-03-02T08:48:51;42.25;37.00;24.50
30713;PMS7003;17465;47.934;33.430;2024-03-02T08:51:22;42.75;37.75;24.75
30713;PMS7003;17465;47.934;33.430;2024-03-02T08:53:52;46.50;39.75;25.25
30713;PMS7003;17465;47.934;33.430;2024-03-02T08:56:22;41.50;37.75;23.75
30713;PMS7003;17465;47.934;33.430;2024-03-02T08:58:53;42.00;35.75;22.25
30713;PMS7003;17465;47.934;33.430;2024-03-02T09:01:23;52.75;41.25;24.75
30713;PMS7003;17465;47.934;33.430;2024-03-02T09:03:54;36.75;34.00;23.00
30713;PMS7003;17465;47.934;33.430;2024-03-02T09:06:25;36.50;34.50;24.50
30713;PMS7003;17465;47.934;33.430;2024-03-02T09:08:55;37.75;34.00;19.25
30713;PMS7003;17465;47.934;33.430;2024-03-02T09:11:25;41.50;38.00;25.00
30713;PMS7003;17465;47.934;33.430;2024-03-02T09:13:56;39.50;36.00;20.25
30713;PMS7003;17465;47.934;33.430;2024-03-02T09:16:26;36.25;35.00;20.00
30713;PMS7003;17465;47.934;33.430;2024-03-02T09:18:57;42.00;34.75;19.25
30713;PMS7003;17465;47.934;33.430;2024-03-02T09:21:27;47.00;38.75;25.00
30713;PMS7003;17465;47.934;33.430;2024-03-02T09:23:57;41.75;36.00;22.25
30713;PMS7003;17465;47.934;33.430;2024-03-02T09:26:28;45.75;36.50;23.75
30713;PMS7003;17465;47.934;33.430;2024-03-02T09:28:58;33.50;30.00;17.50
30713;PMS7003;17465;47.934;33.430;2024-03-02T09:31:28;44.50;38.50;23.50
30713;PMS7003;17465;47.934;33.430;2024-03-02T09:33:59;33.00;31.50;21.00
30713;PMS7003;17465;47.934;33.430;2024-03-02T09:36:29;40.25;35.50;22.75
30713;PMS7003;17465;47.934;33.430;2024-03-02T09:39:00;41.00;35.00;22.00
30713;PMS7003;17465;47.934;33.430;2024-03-02T09:41:30;43.25;36.25;22.25
30713;PMS7003;17465;47.934;33.430;2024-03-02T09:44:02;38.75;34.75;21.25
30713;PMS7003;17465;47.934;33.430;2024-03-02T09:46:33;29.00;26.50;15.00
30713;PMS7003;17465;47.934;33.430;2024-03-02T09:49:03;32.25;31.00;22.50
30713;PMS7003;17465;47.934;33.430;2024-03-02T09:51:34;28.75;28.50;17.00
30713;PMS7003;17465;47.934;33.430;2024-03-02T09:54:04;37.25;35.00;23.50
30713;PMS7003;17465;47.934;33.430;2024-03-02T09:56:39;40.75;33.00;21.50
30713;PMS7003;17465;47.934;33.430;2024-03-02T09:59:09;29.50;29.50;19.25
30713;PMS7003;17465;47.934;33.430;2024-03-02T10:01:39;26.25;23.50;14.75
30713;PMS7003;17465;47.934;33.430;2024-03-02T10:04:11;24.50;23.75;16.75
30713;PMS7003;17465;47.934;33.430;2024-03-02T10:07:11;22.00;19.25;12.00
30713;PMS7003;17465;47.934;33.430;2024-03-02T10:09:46;21.00;19.50;13.00
30713;PMS7003;17465;47.934;33.430;2024-03-02T10:12:18;18.50;18.50;11.50
30713;PMS7003;17465;47.934;33.430;2024-03-02T10:14:48;21.50;20.00;12.25
30713;PMS7003;17465;47.934;33.430;2024-03-02T10:17:19;28.25;24.50;15.50
30713;PMS7003;17465;47.934;33.430;2024-03-02T10:19:49;42.25;35.00;24.00
30713;PMS7003;17465;47.934;33.430;2024-03-02T10:22:20;34.00;31.50;23.25
30713;PMS7003;17465;47.934;33.430;2024-03-02T10:24:52;26.75;25.50;17.25
30713;PMS7003;17465;47.934;33.430;2024-03-02T10:27:26;27.50;27.25;19.75
30713;PMS7003;17465;47.934;33.430;2024-03-02T10:29:56;26.50;24.75;15.25
30713;PMS7003;17465;47.934;33.430;2024-03-02T10:32:27;21.75;18.50;12.75
30713;PMS7003;17465;47.934;33.430;2024-03-02T10:34:58;26.50;25.25;16.00
30713;PMS7003;17465;47.934;33.430;2024-03-02T10:37:29;27.75;26.00;17.25
30713;PMS7003;17465;47.934;33.430;2024-03-02T10:40:04;32.00;30.25;20.00
30713;PMS7003;17465;47.934;33.430;2024-03-02T10:42:44;31.50;29.75;22.00
30713;PMS7003;17465;47.934;33.430;2024-03-02T10:45:16;26.50;26.50;18.75
30713;PMS7003;17465;47.934;33.430;2024-03-02T10:47:50;30.50;30.25;20.50
30713;PMS7003;17465;47.934;33.430;2024-03-02T10:50:20;33.00;29.50;17.75
30713;PMS7003;17465;47.934;33.430;2024-03-02T10:52:51;30.25;29.00;18.75
30713;PMS7003;17465;47.934;33.430;2024-03-02T10:55:21;30.75;26.75;18.00
30713;PMS7003;17465;47.934;33.430;2024-03-02T10:57:52;29.50;28.50;16.00
30713;PMS7003;17465;47.934;33.430;2024-03-02T11:00:24;19.75;18.25;11.50
30713;PMS7003;17465;47.934;33.430;2024-03-02T11:02:56;21.75;18.75;11.50
30713;PMS7003;17465;47.934;33.430;2024-03-02T11:05:36;21.25;20.00;10.75
30713;PMS7003;17465;47.934;33.430;2024-03-02T11:08:02;22.25;21.75;13.00
30713;PMS7003;17465;47.934;33.430;2024-03-02T11:10:35;25.50;22.25;13.75
30713;PMS7003;17465;47.934;33.430;2024-03-02T11:13:16;27.25;26.25;14.00
30713;PMS7003;17465;47.934;33.430;2024-03-02T11:15:49;23.00;23.00;11.75
30713;PMS7003;17465;47.934;33.430;2024-03-02T11:18:23;38.50;33.50;23.75
30713;PMS7003;17465;47.934;33.430;2024-03-02T11:20:54;28.75;26.00;14.00
30713;PMS7003;17465;47.934;33.430;2024-03-02T11:23:31;33.75;31.50;22.75
30713;PMS7003;17465;47.934;33.430;2024-03-02T11:26:24;24.25;23.50;12.25
30713;PMS7003;17465;47.934;33.430;2024-03-02T11:28:50;36.50;34.25;25.50
30713;PMS7003;17465;47.934;33.430;2024-03-02T11:31:21;45.00;39.50;27.25
30713;PMS7003;17465;47.934;33.430;2024-03-02T11:33:51;33.00;30.00;18.50
30713;PMS7003;17465;47.934;33.430;2024-03-02T11:36:21;28.25;25.00;12.00
30713;PMS7003;17465;47.934;33.430;2024-03-02T11:38:52;26.25;22.75;15.25
30713;PMS7003;17465;47.934;33.430;2024-03-02T11:41:23;36.75;32.50;20.00
30713;PMS7003;17465;47.934;33.430;2024-03-02T11:43:53;30.75;30.75;20.50
30713;PMS7003;17465;47.934;33.430;2024-03-02T11:46:24;24.50;20.75;18.75
30713;PMS7003;17465;47.934;33.430;2024-03-02T11:48:55;36.25;33.50;22.75
30713;PMS7003;17465;47.934;33.430;2024-03-02T11:51:26;35.00;34.00;24.00
30713;PMS7003;17465;47.934;33.430;2024-03-02T11:53:56;41.50;35.50;24.00
30713;PMS7003;17465;47.934;33.430;2024-03-02T11:56:28;47.50;39.00;24.75
30713;PMS7003;17465;47.934;33.430;2024-03-02T11:59:01;39.25;37.00;24.00
30713;PMS7003;17465;47.934;33.430;2024-03-02T12:01:37;38.25;35.25;24.50
30713;PMS7003;17465;47.934;33.430;2024-03-02T12:04:08;42.75;37.75;28.00
30713;PMS7003;17465;47.934;33.430;2024-03-02T12:06:39;39.75;35.75;24.00
30713;PMS7003;17465;47.934;33.430;2024-03-02T12:09:10;31.75;30.00;23.00
30713;PMS7003;17465;47.934;33.430;2024-03-02T12:11:40;47.50;38.25;25.50
30713;PMS7003;17465;47.934;33.430;2024-03-02T12:14:13;45.75;38.00;25.25
30713;PMS7003;17465;47.934;33.430;2024-03-02T12:16:44;34.50;33.00;21.00
30713;PMS7003;17465;47.934;33.430;2024-03-02T12:19:14;35.75;32.75;22.25
30713;PMS7003;17465;47.934;33.430;2024-03-02T12:21:45;35.00;31.25;20.50
30713;PMS7003;17465;47.934;33.430;2024-03-02T12:24:16;33.25;30.25;17.75
30713;PMS7003;17465;47.934;33.430;2024-03-02T12:26:46;36.75;34.25;22.00
30713;PMS7003;17465;47.934;33.430;2024-03-02T12:29:18;26.50;25.25;19.00
30713;PMS7003;17465;47.934;33.430;2024-03-02T12:31:49;35.00;29.75;20.25
30713;PMS7003;17465;47.934;33.430;2024-03-02T12:34:21;37.25;34.00;21.00
30713;PMS7003;17465;47.934;33.430;2024-03-02T12:36:52;29.50;29.50;16.25
30713;PMS7003;17465;47.934;33.430;2024-03-02T12:39:23;26.50;24.75;17.00
30713;PMS7003;17465;47.934;33.430;2024-03-02T12:41:53;28.00;26.25;18.25
30713;PMS7003;17465;47.934;33.430;2024-03-02T12:44:23;28.75;26.25;18.00
30713;PMS7003;17465;47.934;33.430;2024-03-02T12:46:53;34.25;32.50;18.25
30713;PMS7003;17465;47.934;33.430;2024-03-02T12:49:26;27.00;22.75;14.25
30713;PMS7003;17465;47.934;33.430;2024-03-02T12:51:56;22.00;18.75;11.25
30713;PMS7003;17465;47.934;33.430;2024-03-02T12:54:27;28.25;26.75;17.75
30713;PMS7003;17465;47.934;33.430;2024-03-02T12:56:57;31.50;31.25;22.25
30713;PMS7003;17465;47.934;33.430;2024-03-02T12:59:28;39.75;34.00;21.25
30713;PMS7003;17465;47.934;33.430;2024-03-02T13:01:58;34.25;32.25;18.50
30713;PMS7003;17465;47.934;33.430;2024-03-02T13:04:28;31.00;28.75;17.75
30713;PMS7003;17465;47.934;33.430;2024-03-02T13:06:59;29.25;29.25;20.50
30713;PMS7003;17465;47.934;33.430;2024-03-02T13:09:31;36.25;32.00;20.75
30713;PMS7003;17465;47.934;33.430;2024-03-02T13:12:01;38.75;35.50;21.75
30713;PMS7003;17465;47.934;33.430;2024-03-02T13:14:32;26.75;24.25;16.25
30713;PMS7003;17465;47.934;33.430;2024-03-02T13:17:03;34.50;31.50;20.75
30713;PMS7003;17465;47.934;33.430;2024-03-02T13:19:34;36.75;30.75;18.00
30713;PMS7003;17465;47.934;33.430;2024-03-02T13:22:04;26.25;25.25;17.25
30713;PMS7003;17465;47.934;33.430;2024-03-02T13:24:35;35.50;28.75;18.75
30713;PMS7003;17465;47.934;33.430;2024-03-02T13:27:05;31.75;30.25;18.75
30713;PMS7003;17465;47.934;33.430;2024-03-02T13:29:36;25.00;21.75;16.75
30713;PMS7003;17465;47.934;33.430;2024-03-02T13:32:12;36.75;32.75;20.00
30713;PMS7003;17465;47.934;33.430;2024-03-02T13:34:38;32.00;29.50;20.75
30713;PMS7003;17465;47.934;33.430;2024-03-02T13:37:08;30.75;28.00;17.50
30713;PMS7003;17465;47.934;33.430;2024-03-02T13:39:39;36.25;34.00;19.75
30713;PMS7003;17465;47.934;33.430;2024-03-02T13:42:11;36.00;30.75;19.25
30713;PMS7003;17465;47.934;33.430;2024-03-02T13:44:45;34.25;27.50;16.50
30713;PMS7003;17465;47.934;33.430;2024-03-02T13:47:37;30.50;28.25;16.75
30713;PMS7003;17465;47.934;33.430;2024-03-02T13:50:07;19.75;12.00;7.25
30713;PMS7003;17465;47.934;33.430;2024-03-02T13:52:38;35.50;35.00;23.00